sensor_id;sensor_type;location;lat;lon;timestamp;P1;durP1;ratioP1;P2;durP2;ratioP2
55254;SDS011;41118;44.634;11.182;2023-01-19T00:00:23;28.65;;;10.60;;
55254;SDS011;41118;44.634;11.182;2023-01-19T00:02:49;31.38;;;13.90;;
55254;SDS011;41118;44.634;11.182;2023-01-19T00:05:15;31.42;;;15.63;;
55254;SDS011;41118;44.634;11.182;2023-01-19T00:07:42;35.28;;;15.68;;
55254;SDS011;41118;44.634;11.182;2023-01-19T00:10:08;33.97;;;15.70;;
55254;SDS011;41118;44.634;11.182;2023-01-19T00:12:34;33.22;;;13.63;;
55254;SDS011;41118;44.634;11.182;2023-01-19T00:15:00;35.70;;;14.18;;
55254;SDS011;41118;44.634;11.182;2023-01-19T00:17:26;32.65;;;14.27;;
55254;SDS011;41118;44.634;11.182;2023-01-19T00:19:53;30.58;;;14.20;;
55254;SDS011;41118;44.634;11.182;2023-01-19T00:22:19;40.30;;;14.35;;
55254;SDS011;41118;44.634;11.182;2023-01-19T00:24:45;29.48;;;13.75;;
55254;SDS011;41118;44.634;11.182;2023-01-19T00:27:12;33.30;;;16.35;;
55254;SDS011;41118;44.634;11.182;2023-01-19T00:29:38;31.42;;;13.77;;
55254;SDS011;41118;44.634;11.182;2023-01-19T00:32:04;35.63;;;15.57;;
55254;SDS011;41118;44.634;11.182;2023-01-19T00:34:31;35.88;;;14.32;;
55254;SDS011;41118;44.634;11.182;2023-01-19T00:37:06;35.70;;;12.70;;
55254;SDS011;41118;44.634;11.182;2023-01-19T00:39:33;32.03;;;11.77;;
55254;SDS011;41118;44.634;11.182;2023-01-19T00:41:59;38.60;;;14.13;;
55254;SDS011;41118;44.634;11.182;2023-01-19T00:44:44;33.05;;;16.08;;
55254;SDS011;41118;44.634;11.182;2023-01-19T00:47:10;25.30;;;10.15;;
55254;SDS011;41118;44.634;11.182;2023-01-19T00:49:37;28.98;;;11.35;;
55254;SDS011;41118;44.634;11.182;2023-01-19T00:52:03;29.02;;;12.80;;
55254;SDS011;41118;44.634;11.182;2023-01-19T00:54:29;33.97;;;11.98;;
55254;SDS011;41118;44.634;11.182;2023-01-19T00:56:56;32.63;;;14.13;;
55254;SDS011;41118;44.634;11.182;2023-01-19T00:59:22;35.22;;;13.15;;
55254;SDS011;41118;44.634;11.182;2023-01-19T01:01:49;40.90;;;14.95;;
55254;SDS011;41118;44.634;11.182;2023-01-19T01:04:16;36.80;;;13.60;;
55254;SDS011;41118;44.634;11.182;2023-01-19T01:06:42;32.25;;;15.68;;
55254;SDS011;41118;44.634;11.182;2023-01-19T01:09:08;32.95;;;14.43;;
55254;SDS011;41118;44.634;11.182;2023-01-19T01:11:37;32.58;;;15.85;;
55254;SDS011;41118;44.634;11.182;2023-01-19T01:14:04;27.45;;;12.68;;
55254;SDS011;41118;44.634;11.182;2023-01-19T01:16:30;28.90;;;15.23;;
55254;SDS011;41118;44.634;11.182;2023-01-19T01:18:57;36.75;;;15.93;;
55254;SDS011;41118;44.634;11.182;2023-01-19T01:21:23;31.02;;;12.98;;
55254;SDS011;41118;44.634;11.182;2023-01-19T01:23:49;31.75;;;15.05;;
55254;SDS011;41118;44.634;11.182;2023-01-19T01:26:16;29.30;;;12.73;;
55254;SDS011;41118;44.634;11.182;2023-01-19T01:28:42;30.38;;;12.05;;
55254;SDS011;41118;44.634;11.182;2023-01-19T01:31:08;37.95;;;14.30;;
55254;SDS011;41118;44.634;11.182;2023-01-19T01:33:34;35.13;;;15.65;;
55254;SDS011;41118;44.634;11.182;2023-01-19T01:36:01;31.35;;;14.02;;
55254;SDS011;41118;44.634;11.182;2023-01-19T01:38:27;32.90;;;13.35;;
55254;SDS011;41118;44.634;11.182;2023-01-19T01:40:53;39.00;;;14.65;;
55254;SDS011;41118;44.634;11.182;2023-01-19T01:43:19;28.40;;;14.63;;
55254;SDS011;41118;44.634;11.182;2023-01-19T01:45:45;32.58;;;14.60;;
55254;SDS011;41118;44.634;11.182;2023-01-19T01:50:40;29.92;;;13.65;;
55254;SDS011;41118;44.634;11.182;2023-01-19T01:53:28;34.17;;;14.55;;
55254;SDS011;41118;44.634;11.182;2023-01-19T01:55:55;32.13;;;14.35;;
55254;SDS011;41118;44.634;11.182;2023-01-19T01:58:22;30.83;;;14.63;;
55254;SDS011;41118;44.634;11.182;2023-01-19T02:00:48;29.65;;;12.07;;
55254;SDS011;41118;44.634;11.182;2023-01-19T02:03:33;30.35;;;12.50;;
55254;SDS011;41118;44.634;11.182;2023-01-19T02:05:59;32.65;;;13.73;;
55254;SDS011;41118;44.634;11.182;2023-01-19T02:08:27;29.23;;;11.70;;
55254;SDS011;41118;44.634;11.182;2023-01-19T02:11:14;33.55;;;14.23;;
55254;SDS011;41118;44.634;11.182;2023-01-19T02:13:59;28.70;;;12.45;;
55254;SDS011;41118;44.634;11.182;2023-01-19T02:16:28;34.03;;;15.27;;
55254;SDS011;41118;44.634;11.182;2023-01-19T02:18:54;31.30;;;14.48;;
55254;SDS011;41118;44.634;11.182;2023-01-19T02:21:38;35.60;;;13.80;;
55254;SDS011;41118;44.634;11.182;2023-01-19T02:24:07;35.75;;;15.73;;
55254;SDS011;41118;44.634;11.182;2023-01-19T02:26:43;35.95;;;12.73;;
55254;SDS011;41118;44.634;11.182;2023-01-19T02:29:11;30.75;;;11.88;;
55254;SDS011;41118;44.634;11.182;2023-01-19T02:31:38;31.25;;;13.38;;
55254;SDS011;41118;44.634;11.182;2023-01-19T02:34:05;38.58;;;15.38;;
55254;SDS011;41118;44.634;11.182;2023-01-19T02:36:36;25.15;;;12.43;;
55254;SDS011;41118;44.634;11.182;2023-01-19T02:39:03;24.75;;;12.07;;
55254;SDS011;41118;44.634;11.182;2023-01-19T02:41:32;29.15;;;15.05;;
55254;SDS011;41118;44.634;11.182;2023-01-19T02:43:59;31.13;;;13.15;;
55254;SDS011;41118;44.634;11.182;2023-01-19T02:46:26;30.25;;;14.93;;
55254;SDS011;41118;44.634;11.182;2023-01-19T02:48:55;36.20;;;15.05;;
55254;SDS011;41118;44.634;11.182;2023-01-19T02:51:23;32.30;;;12.30;;
55254;SDS011;41118;44.634;11.182;2023-01-19T02:54:04;33.97;;;14.70;;
55254;SDS011;41118;44.634;11.182;2023-01-19T03:04:14;27.48;;;12.00;;
55254;SDS011;41118;44.634;11.182;2023-01-19T03:06:44;27.27;;;11.45;;
55254;SDS011;41118;44.634;11.182;2023-01-19T03:09:25;28.73;;;13.05;;
55254;SDS011;41118;44.634;11.182;2023-01-19T03:11:53;33.60;;;13.48;;
55254;SDS011;41118;44.634;11.182;2023-01-19T03:14:22;24.23;;;11.90;;
55254;SDS011;41118;44.634;11.182;2023-01-19T03:16:50;32.40;;;12.45;;
55254;SDS011;41118;44.634;11.182;2023-01-19T03:19:25;34.80;;;14.13;;
55254;SDS011;41118;44.634;11.182;2023-01-19T03:21:57;26.50;;;13.20;;
55254;SDS011;41118;44.634;11.182;2023-01-19T03:24:23;33.67;;;13.07;;
55254;SDS011;41118;44.634;11.182;2023-01-19T03:26:52;28.00;;;10.75;;
55254;SDS011;41118;44.634;11.182;2023-01-19T03:29:23;25.65;;;12.57;;
55254;SDS011;41118;44.634;11.182;2023-01-19T03:31:50;26.67;;;13.93;;
55254;SDS011;41118;44.634;11.182;2023-01-19T03:34:16;29.27;;;11.07;;
55254;SDS011;41118;44.634;11.182;2023-01-19T03:36:50;30.20;;;11.32;;
55254;SDS011;41118;44.634;11.182;2023-01-19T03:39:20;27.50;;;12.98;;
55254;SDS011;41118;44.634;11.182;2023-01-19T03:41:47;29.73;;;12.93;;
55254;SDS011;41118;44.634;11.182;2023-01-19T03:44:13;29.90;;;11.43;;
55254;SDS011;41118;44.634;11.182;2023-01-19T03:46:40;34.55;;;13.07;;
55254;SDS011;41118;44.634;11.182;2023-01-19T03:49:07;31.55;;;12.88;;
55254;SDS011;41118;44.634;11.182;2023-01-19T03:51:35;27.88;;;11.30;;
55254;SDS011;41118;44.634;11.182;2023-01-19T03:54:02;32.45;;;13.63;;
55254;SDS011;41118;44.634;11.182;2023-01-19T03:56:29;30.92;;;13.13;;
55254;SDS011;41118;44.634;11.182;2023-01-19T03:58:55;29.73;;;13.13;;
55254;SDS011;41118;44.634;11.182;2023-01-19T04:01:21;31.70;;;13.82;;
55254;SDS011;41118;44.634;11.182;2023-01-19T04:03:49;31.50;;;13.95;;
55254;SDS011;41118;44.634;11.182;2023-01-19T04:06:15;31.58;;;12.38;;
55254;SDS011;41118;44.634;11.182;2023-01-19T04:08:42;32.80;;;12.07;;
55254;SDS011;41118;44.634;11.182;2023-01-19T04:11:08;32.08;;;13.27;;
55254;SDS011;41118;44.634;11.182;2023-01-19T04:13:34;30.58;;;11.32;;
55254;SDS011;41118;44.634;11.182;2023-01-19T04:16:00;33.28;;;14.30;;
55254;SDS011;41118;44.634;11.182;2023-01-19T04:18:28;29.13;;;12.80;;
55254;SDS011;41118;44.634;11.182;2023-01-19T04:20:54;30.88;;;14.32;;
55254;SDS011;41118;44.634;11.182;2023-01-19T04:23:20;29.80;;;13.68;;
55254;SDS011;41118;44.634;11.182;2023-01-19T04:25:46;28.77;;;12.77;;
55254;SDS011;41118;44.634;11.182;2023-01-19T04:28:12;28.92;;;11.80;;
55254;SDS011;41118;44.634;11.182;2023-01-19T04:30:38;26.67;;;11.52;;
55254;SDS011;41118;44.634;11.182;2023-01-19T04:33:04;28.27;;;12.32;;
55254;SDS011;41118;44.634;11.182;2023-01-19T04:35:30;28.00;;;9.90;;
55254;SDS011;41118;44.634;11.182;2023-01-19T04:37:58;27.15;;;12.27;;
55254;SDS011;41118;44.634;11.182;2023-01-19T04:40:24;24.75;;;11.30;;
55254;SDS011;41118;44.634;11.182;2023-01-19T04:42:50;28.55;;;13.57;;
55254;SDS011;41118;44.634;11.182;2023-01-19T04:45:16;30.88;;;13.07;;
55254;SDS011;41118;44.634;11.182;2023-01-19T04:47:42;33.60;;;14.02;;
55254;SDS011;41118;44.634;11.182;2023-01-19T04:50:09;30.88;;;11.95;;
55254;SDS011;41118;44.634;11.182;2023-01-19T04:52:35;28.83;;;13.13;;
55254;SDS011;41118;44.634;11.182;2023-01-19T04:55:02;30.58;;;12.55;;
55254;SDS011;41118;44.634;11.182;2023-01-19T04:57:28;25.73;;;13.05;;
55254;SDS011;41118;44.634;11.182;2023-01-19T04:59:55;31.08;;;13.18;;
55254;SDS011;41118;44.634;11.182;2023-01-19T05:02:21;39.17;;;13.10;;
55254;SDS011;41118;44.634;11.182;2023-01-19T05:04:47;31.20;;;12.25;;
55254;SDS011;41118;44.634;11.182;2023-01-19T05:07:13;30.95;;;13.20;;
55254;SDS011;41118;44.634;11.182;2023-01-19T05:09:39;25.80;;;10.68;;
55254;SDS011;41118;44.634;11.182;2023-01-19T05:12:05;28.40;;;11.95;;
55254;SDS011;41118;44.634;11.182;2023-01-19T05:14:32;29.20;;;11.02;;
55254;SDS011;41118;44.634;11.182;2023-01-19T05:16:58;25.13;;;10.88;;
55254;SDS011;41118;44.634;11.182;2023-01-19T05:19:26;28.00;;;11.73;;
55254;SDS011;41118;44.634;11.182;2023-01-19T05:21:52;25.73;;;11.48;;
55254;SDS011;41118;44.634;11.182;2023-01-19T05:24:18;30.95;;;11.43;;
55254;SDS011;41118;44.634;11.182;2023-01-19T05:26:44;26.67;;;12.10;;
55254;SDS011;41118;44.634;11.182;2023-01-19T05:29:10;25.23;;;10.73;;
55254;SDS011;41118;44.634;11.182;2023-01-19T05:31:37;28.35;;;12.23;;
55254;SDS011;41118;44.634;11.182;2023-01-19T05:34:04;33.08;;;11.73;;
55254;SDS011;41118;44.634;11.182;2023-01-19T05:36:30;23.55;;;11.98;;
55254;SDS011;41118;44.634;11.182;2023-01-19T05:38:56;24.30;;;11.43;;
55254;SDS011;41118;44.634;11.182;2023-01-19T05:41:22;33.08;;;13.55;;
55254;SDS011;41118;44.634;11.182;2023-01-19T05:43:49;16.13;;;6.03;;
55254;SDS011;41118;44.634;11.182;2023-01-19T05:46:15;17.02;;;8.48;;
55254;SDS011;41118;44.634;11.182;2023-01-19T05:48:41;24.92;;;9.73;;
55254;SDS011;41118;44.634;11.182;2023-01-19T05:51:07;31.33;;;14.05;;
55254;SDS011;41118;44.634;11.182;2023-01-19T05:53:33;25.88;;;11.30;;
55254;SDS011;41118;44.634;11.182;2023-01-19T05:56:01;29.85;;;12.27;;
55254;SDS011;41118;44.634;11.182;2023-01-19T05:58:27;32.55;;;13.68;;
55254;SDS011;41118;44.634;11.182;2023-01-19T06:00:54;32.05;;;13.50;;
55254;SDS011;41118;44.634;11.182;2023-01-19T06:03:20;32.97;;;14.30;;
55254;SDS011;41118;44.634;11.182;2023-01-19T06:05:46;30.98;;;13.65;;
55254;SDS011;41118;44.634;11.182;2023-01-19T06:08:12;33.88;;;14.23;;
55254;SDS011;41118;44.634;11.182;2023-01-19T06:10:38;35.30;;;14.68;;
55254;SDS011;41118;44.634;11.182;2023-01-19T06:13:04;40.65;;;15.18;;
55254;SDS011;41118;44.634;11.182;2023-01-19T06:15:30;39.90;;;14.40;;
55254;SDS011;41118;44.634;11.182;2023-01-19T06:17:57;40.75;;;17.83;;
55254;SDS011;41118;44.634;11.182;2023-01-19T06:20:23;38.97;;;16.58;;
55254;SDS011;41118;44.634;11.182;2023-01-19T06:22:49;43.47;;;16.55;;
55254;SDS011;41118;44.634;11.182;2023-01-19T06:25:15;40.45;;;15.00;;
55254;SDS011;41118;44.634;11.182;2023-01-19T06:27:42;42.70;;;18.17;;
55254;SDS011;41118;44.634;11.182;2023-01-19T06:30:09;40.88;;;17.45;;
55254;SDS011;41118;44.634;11.182;2023-01-19T06:32:35;35.72;;;16.40;;
55254;SDS011;41118;44.634;11.182;2023-01-19T06:35:02;39.67;;;15.73;;
55254;SDS011;41118;44.634;11.182;2023-01-19T06:37:28;31.98;;;14.38;;
55254;SDS011;41118;44.634;11.182;2023-01-19T06:39:55;33.67;;;15.60;;
55254;SDS011;41118;44.634;11.182;2023-01-19T06:42:21;38.03;;;16.00;;
55254;SDS011;41118;44.634;11.182;2023-01-19T06:44:47;37.13;;;15.63;;
55254;SDS011;41118;44.634;11.182;2023-01-19T06:47:14;34.10;;;13.43;;
55254;SDS011;41118;44.634;11.182;2023-01-19T06:49:40;34.95;;;13.85;;
55254;SDS011;41118;44.634;11.182;2023-01-19T06:52:10;40.38;;;16.70;;
55254;SDS011;41118;44.634;11.182;2023-01-19T06:54:38;30.33;;;13.85;;
55254;SDS011;41118;44.634;11.182;2023-01-19T06:57:04;33.70;;;15.63;;
55254;SDS011;41118;44.634;11.182;2023-01-19T06:59:30;35.97;;;17.38;;
55254;SDS011;41118;44.634;11.182;2023-01-19T07:01:56;37.10;;;15.32;;
55254;SDS011;41118;44.634;11.182;2023-01-19T07:04:23;32.03;;;15.07;;
55254;SDS011;41118;44.634;11.182;2023-01-19T07:06:49;35.47;;;15.55;;
55254;SDS011;41118;44.634;11.182;2023-01-19T07:09:16;30.85;;;13.35;;
55254;SDS011;41118;44.634;11.182;2023-01-19T07:11:42;37.70;;;15.77;;
55254;SDS011;41118;44.634;11.182;2023-01-19T07:14:08;42.03;;;16.33;;
55254;SDS011;41118;44.634;11.182;2023-01-19T07:16:34;33.28;;;14.73;;
55254;SDS011;41118;44.634;11.182;2023-01-19T07:19:00;36.97;;;16.50;;
55254;SDS011;41118;44.634;11.182;2023-01-19T07:21:26;31.92;;;14.32;;
55254;SDS011;41118;44.634;11.182;2023-01-19T07:23:52;33.45;;;14.02;;
55254;SDS011;41118;44.634;11.182;2023-01-19T07:26:18;36.55;;;15.27;;
55254;SDS011;41118;44.634;11.182;2023-01-19T07:28:48;32.78;;;15.57;;
55254;SDS011;41118;44.634;11.182;2023-01-19T07:31:14;37.28;;;12.50;;
55254;SDS011;41118;44.634;11.182;2023-01-19T07:33:40;30.00;;;14.48;;
55254;SDS011;41118;44.634;11.182;2023-01-19T07:36:07;30.95;;;12.82;;
55254;SDS011;41118;44.634;11.182;2023-01-19T07:38:33;31.88;;;13.68;;
55254;SDS011;41118;44.634;11.182;2023-01-19T07:41:00;34.80;;;14.60;;
55254;SDS011;41118;44.634;11.182;2023-01-19T07:43:26;35.78;;;16.10;;
55254;SDS011;41118;44.634;11.182;2023-01-19T07:45:54;40.30;;;17.42;;
55254;SDS011;41118;44.634;11.182;2023-01-19T07:48:21;45.50;;;21.50;;
55254;SDS011;41118;44.634;11.182;2023-01-19T07:50:47;45.72;;;22.27;;
55254;SDS011;41118;44.634;11.182;2023-01-19T07:53:14;44.92;;;21.27;;
55254;SDS011;41118;44.634;11.182;2023-01-19T07:55:40;48.17;;;19.55;;
55254;SDS011;41118;44.634;11.182;2023-01-19T07:58:07;44.35;;;20.08;;
55254;SDS011;41118;44.634;11.182;2023-01-19T08:00:34;44.80;;;17.83;;
55254;SDS011;41118;44.634;11.182;2023-01-19T08:03:00;34.00;;;13.00;;
55254;SDS011;41118;44.634;11.182;2023-01-19T08:05:26;28.83;;;12.35;;
55254;SDS011;41118;44.634;11.182;2023-01-19T08:07:56;35.45;;;14.35;;
55254;SDS011;41118;44.634;11.182;2023-01-19T08:10:23;34.40;;;13.15;;
55254;SDS011;41118;44.634;11.182;2023-01-19T08:12:51;27.50;;;10.60;;
55254;SDS011;41118;44.634;11.182;2023-01-19T08:15:17;28.38;;;10.90;;
55254;SDS011;41118;44.634;11.182;2023-01-19T08:17:43;26.42;;;9.05;;
55254;SDS011;41118;44.634;11.182;2023-01-19T08:20:10;30.65;;;11.52;;
55254;SDS011;41118;44.634;11.182;2023-01-19T08:22:37;23.55;;;8.88;;
55254;SDS011;41118;44.634;11.182;2023-01-19T08:25:03;30.80;;;10.55;;
55254;SDS011;41118;44.634;11.182;2023-01-19T08:27:29;34.33;;;12.20;;
55254;SDS011;41118;44.634;11.182;2023-01-19T08:29:55;38.28;;;13.68;;
55254;SDS011;41118;44.634;11.182;2023-01-19T08:32:22;33.55;;;11.90;;
55254;SDS011;41118;44.634;11.182;2023-01-19T08:34:49;33.47;;;12.82;;
55254;SDS011;41118;44.634;11.182;2023-01-19T08:37:15;32.63;;;11.40;;
55254;SDS011;41118;44.634;11.182;2023-01-19T08:39:41;32.05;;;12.25;;
55254;SDS011;41118;44.634;11.182;2023-01-19T08:42:08;31.05;;;11.85;;
55254;SDS011;41118;44.634;11.182;2023-01-19T08:44:34;22.55;;;9.77;;
55254;SDS011;41118;44.634;11.182;2023-01-19T08:47:00;29.35;;;10.63;;
55254;SDS011;41118;44.634;11.182;2023-01-19T08:49:27;38.00;;;11.70;;
55254;SDS011;41118;44.634;11.182;2023-01-19T08:51:53;29.00;;;11.38;;
55254;SDS011;41118;44.634;11.182;2023-01-19T08:54:19;30.08;;;10.18;;
55254;SDS011;41118;44.634;11.182;2023-01-19T08:56:45;36.90;;;11.55;;
55254;SDS011;41118;44.634;11.182;2023-01-19T08:59:12;28.63;;;9.73;;
55254;SDS011;41118;44.634;11.182;2023-01-19T09:01:38;38.40;;;10.95;;
55254;SDS011;41118;44.634;11.182;2023-01-19T09:04:05;25.60;;;8.77;;
55254;SDS011;41118;44.634;11.182;2023-01-19T09:06:31;20.95;;;5.22;;
55254;SDS011;41118;44.634;11.182;2023-01-19T09:08:57;22.60;;;5.07;;
55254;SDS011;41118;44.634;11.182;2023-01-19T09:11:23;22.75;;;6.00;;
55254;SDS011;41118;44.634;11.182;2023-01-19T09:13:49;20.90;;;5.30;;
55254;SDS011;41118;44.634;11.182;2023-01-19T09:16:15;23.38;;;7.50;;
55254;SDS011;41118;44.634;11.182;2023-01-19T09:18:42;17.15;;;5.93;;
55254;SDS011;41118;44.634;11.182;2023-01-19T09:21:09;15.10;;;2.78;;
55254;SDS011;41118;44.634;11.182;2023-01-19T09:23:35;15.57;;;3.20;;
55254;SDS011;41118;44.634;11.182;2023-01-19T09:26:03;20.15;;;6.15;;
55254;SDS011;41118;44.634;11.182;2023-01-19T09:28:29;14.75;;;4.30;;
55254;SDS011;41118;44.634;11.182;2023-01-19T09:31:05;12.55;;;3.03;;
55254;SDS011;41118;44.634;11.182;2023-01-19T09:33:31;14.73;;;3.60;;
55254;SDS011;41118;44.634;11.182;2023-01-19T09:35:57;7.45;;;2.10;;
55254;SDS011;41118;44.634;11.182;2023-01-19T09:38:24;10.07;;;2.40;;
55254;SDS011;41118;44.634;11.182;2023-01-19T09:40:52;11.00;;;3.30;;
55254;SDS011;41118;44.634;11.182;2023-01-19T09:45:51;16.52;;;2.92;;
55254;SDS011;41118;44.634;11.182;2023-01-19T09:50:48;12.10;;;3.50;;
55254;SDS011;41118;44.634;11.182;2023-01-19T09:53:15;14.98;;;3.63;;
55254;SDS011;41118;44.634;11.182;2023-01-19T09:55:43;10.07;;;3.25;;
55254;SDS011;41118;44.634;11.182;2023-01-19T09:58:13;23.77;;;3.53;;
55254;SDS011;41118;44.634;11.182;2023-01-19T10:00:41;18.33;;;5.05;;
55254;SDS011;41118;44.634;11.182;2023-01-19T10:03:13;11.30;;;3.13;;
55254;SDS011;41118;44.634;11.182;2023-01-19T10:10:57;20.38;;;5.63;;
55254;SDS011;41118;44.634;11.182;2023-01-19T10:18:23;15.80;;;3.95;;
55254;SDS011;41118;44.634;11.182;2023-01-19T10:23:35;19.10;;;4.68;;
55254;SDS011;41118;44.634;11.182;2023-01-19T10:26:11;14.75;;;4.57;;
55254;SDS011;41118;44.634;11.182;2023-01-19T10:28:38;17.73;;;5.75;;
55254;SDS011;41118;44.634;11.182;2023-01-19T10:31:05;12.02;;;3.42;;
55254;SDS011;41118;44.634;11.182;2023-01-19T10:33:33;15.70;;;4.72;;
55254;SDS011;41118;44.634;11.182;2023-01-19T10:36:02;25.83;;;5.72;;
55254;SDS011;41118;44.634;11.182;2023-01-19T10:38:28;17.65;;;6.03;;
55254;SDS011;41118;44.634;11.182;2023-01-19T10:40:59;13.55;;;3.08;;
55254;SDS011;41118;44.634;11.182;2023-01-19T10:43:38;20.13;;;6.10;;
55254;SDS011;41118;44.634;11.182;2023-01-19T10:46:15;18.10;;;6.30;;
55254;SDS011;41118;44.634;11.182;2023-01-19T10:48:42;21.13;;;5.72;;
55254;SDS011;41118;44.634;11.182;2023-01-19T10:51:09;15.82;;;5.18;;
55254;SDS011;41118;44.634;11.182;2023-01-19T10:53:35;24.10;;;4.90;;
55254;SDS011;41118;44.634;11.182;2023-01-19T10:56:13;21.25;;;4.78;;
55254;SDS011;41118;44.634;11.182;2023-01-19T10:58:40;18.02;;;4.47;;
55254;SDS011;41118;44.634;11.182;2023-01-19T11:03:41;21.00;;;6.40;;
55254;SDS011;41118;44.634;11.182;2023-01-19T11:08:40;18.38;;;4.88;;
55254;SDS011;41118;44.634;11.182;2023-01-19T11:11:06;19.17;;;4.78;;
55254;SDS011;41118;44.634;11.182;2023-01-19T11:13:33;24.40;;;8.25;;
55254;SDS011;41118;44.634;11.182;2023-01-19T11:16:17;19.55;;;5.45;;
55254;SDS011;41118;44.634;11.182;2023-01-19T11:18:45;27.67;;;8.15;;
55254;SDS011;41118;44.634;11.182;2023-01-19T11:21:16;18.65;;;6.72;;
55254;SDS011;41118;44.634;11.182;2023-01-19T11:26:12;11.63;;;3.53;;
55254;SDS011;41118;44.634;11.182;2023-01-19T11:28:46;11.50;;;3.15;;
55254;SDS011;41118;44.634;11.182;2023-01-19T11:33:49;20.55;;;6.10;;
55254;SDS011;41118;44.634;11.182;2023-01-19T11:38:43;24.58;;;5.20;;
55254;SDS011;41118;44.634;11.182;2023-01-19T11:41:32;17.27;;;4.43;;
55254;SDS011;41118;44.634;11.182;2023-01-19T11:43:57;21.42;;;6.93;;
55254;SDS011;41118;44.634;11.182;2023-01-19T11:46:26;18.05;;;5.57;;
55254;SDS011;41118;44.634;11.182;2023-01-19T11:49:01;23.10;;;7.90;;
55254;SDS011;41118;44.634;11.182;2023-01-19T11:51:35;8.25;;;1.77;;
55254;SDS011;41118;44.634;11.182;2023-01-19T11:54:12;19.05;;;6.28;;
55254;SDS011;41118;44.634;11.182;2023-01-19T11:56:39;25.58;;;5.95;;
55254;SDS011;41118;44.634;11.182;2023-01-19T11:59:07;26.75;;;6.28;;
55254;SDS011;41118;44.634;11.182;2023-01-19T12:01:34;29.65;;;10.75;;
55254;SDS011;41118;44.634;11.182;2023-01-19T12:04:18;26.58;;;7.65;;
55254;SDS011;41118;44.634;11.182;2023-01-19T12:06:47;30.73;;;11.25;;
55254;SDS011;41118;44.634;11.182;2023-01-19T12:09:16;26.30;;;10.48;;
55254;SDS011;41118;44.634;11.182;2023-01-19T12:11:44;25.80;;;8.68;;
55254;SDS011;41118;44.634;11.182;2023-01-19T12:14:21;23.35;;;9.05;;
55254;SDS011;41118;44.634;11.182;2023-01-19T12:16:49;33.33;;;10.20;;
55254;SDS011;41118;44.634;11.182;2023-01-19T12:19:17;34.22;;;12.73;;
55254;SDS011;41118;44.634;11.182;2023-01-19T12:21:45;31.60;;;11.80;;
55254;SDS011;41118;44.634;11.182;2023-01-19T12:29:16;22.90;;;8.77;;
55254;SDS011;41118;44.634;11.182;2023-01-19T12:31:42;23.08;;;8.02;;
55254;SDS011;41118;44.634;11.182;2023-01-19T12:34:27;26.50;;;10.30;;
55254;SDS011;41118;44.634;11.182;2023-01-19T12:37:06;16.63;;;4.38;;
55254;SDS011;41118;44.634;11.182;2023-01-19T12:39:46;21.88;;;5.47;;
55254;SDS011;41118;44.634;11.182;2023-01-19T12:42:15;21.33;;;6.05;;
55254;SDS011;41118;44.634;11.182;2023-01-19T12:44:43;24.73;;;7.07;;
55254;SDS011;41118;44.634;11.182;2023-01-19T12:49:41;15.32;;;3.25;;
55254;SDS011;41118;44.634;11.182;2023-01-19T12:54:52;31.35;;;8.25;;
55254;SDS011;41118;44.634;11.182;2023-01-19T12:57:25;26.23;;;7.15;;
55254;SDS011;41118;44.634;11.182;2023-01-19T12:59:57;20.02;;;5.70;;
55254;SDS011;41118;44.634;11.182;2023-01-19T13:05:07;24.95;;;7.93;;
55254;SDS011;41118;44.634;11.182;2023-01-19T13:15:48;23.25;;;6.57;;
55254;SDS011;41118;44.634;11.182;2023-01-19T13:18:21;24.10;;;5.88;;
55254;SDS011;41118;44.634;11.182;2023-01-19T13:23:21;19.23;;;5.80;;
55254;SDS011;41118;44.634;11.182;2023-01-19T13:25:49;23.50;;;6.47;;
55254;SDS011;41118;44.634;11.182;2023-01-19T13:28:16;16.13;;;5.03;;
55254;SDS011;41118;44.634;11.182;2023-01-19T13:30:48;31.10;;;6.35;;
55254;SDS011;41118;44.634;11.182;2023-01-19T13:33:19;20.58;;;5.65;;
55254;SDS011;41118;44.634;11.182;2023-01-19T13:35:56;17.95;;;4.50;;
55254;SDS011;41118;44.634;11.182;2023-01-19T13:38:23;26.65;;;8.70;;
55254;SDS011;41118;44.634;11.182;2023-01-19T13:40:49;21.58;;;6.47;;
55254;SDS011;41118;44.634;11.182;2023-01-19T13:43:17;20.23;;;6.05;;
55254;SDS011;41118;44.634;11.182;2023-01-19T13:45:48;19.42;;;6.10;;
55254;SDS011;41118;44.634;11.182;2023-01-19T13:48:17;20.30;;;4.82;;
55254;SDS011;41118;44.634;11.182;2023-01-19T13:50:54;16.35;;;5.30;;
55254;SDS011;41118;44.634;11.182;2023-01-19T13:53:21;19.98;;;5.72;;
55254;SDS011;41118;44.634;11.182;2023-01-19T13:56:04;18.98;;;5.53;;
55254;SDS011;41118;44.634;11.182;2023-01-19T13:58:30;23.02;;;6.40;;
55254;SDS011;41118;44.634;11.182;2023-01-19T14:00:56;21.75;;;4.68;;
55254;SDS011;41118;44.634;11.182;2023-01-19T14:03:22;21.38;;;5.25;;
55254;SDS011;41118;44.634;11.182;2023-01-19T14:05:49;14.82;;;4.30;;
55254;SDS011;41118;44.634;11.182;2023-01-19T14:08:16;18.50;;;4.65;;
55254;SDS011;41118;44.634;11.182;2023-01-19T14:10:44;21.65;;;6.03;;
55254;SDS011;41118;44.634;11.182;2023-01-19T14:13:24;21.85;;;5.07;;
55254;SDS011;41118;44.634;11.182;2023-01-19T14:15:51;18.83;;;3.45;;
55254;SDS011;41118;44.634;11.182;2023-01-19T14:29:20;19.98;;;4.25;;
55254;SDS011;41118;44.634;11.182;2023-01-19T14:31:49;10.95;;;1.95;;
55254;SDS011;41118;44.634;11.182;2023-01-19T14:37:03;17.58;;;5.30;;
55254;SDS011;41118;44.634;11.182;2023-01-19T14:39:31;17.75;;;4.30;;
55254;SDS011;41118;44.634;11.182;2023-01-19T14:41:58;13.25;;;2.78;;
55254;SDS011;41118;44.634;11.182;2023-01-19T14:44:28;11.25;;;2.30;;
55254;SDS011;41118;44.634;11.182;2023-01-19T14:46:55;6.65;;;1.75;;
55254;SDS011;41118;44.634;11.182;2023-01-19T14:49:37;14.02;;;2.72;;
55254;SDS011;41118;44.634;11.182;2023-01-19T14:52:16;11.82;;;3.17;;
55254;SDS011;41118;44.634;11.182;2023-01-19T14:54:44;15.15;;;1.98;;
55254;SDS011;41118;44.634;11.182;2023-01-19T14:57:13;6.75;;;1.23;;
55254;SDS011;41118;44.634;11.182;2023-01-19T14:59:40;13.60;;;2.88;;
55254;SDS011;41118;44.634;11.182;2023-01-19T15:02:12;15.10;;;3.15;;
55254;SDS011;41118;44.634;11.182;2023-01-19T15:04:38;15.50;;;3.53;;
55254;SDS011;41118;44.634;11.182;2023-01-19T15:07:04;14.65;;;2.78;;
55254;SDS011;41118;44.634;11.182;2023-01-19T15:09:31;11.23;;;2.30;;
55254;SDS011;41118;44.634;11.182;2023-01-19T15:11:57;11.65;;;1.90;;
55254;SDS011;41118;44.634;11.182;2023-01-19T15:14:23;6.18;;;0.50;;
55254;SDS011;41118;44.634;11.182;2023-01-19T15:16:51;7.82;;;1.80;;
55254;SDS011;41118;44.634;11.182;2023-01-19T15:19:17;5.22;;;0.90;;
55254;SDS011;41118;44.634;11.182;2023-01-19T15:21:44;7.53;;;1.15;;
55254;SDS011;41118;44.634;11.182;2023-01-19T15:24:11;6.15;;;0.85;;
55254;SDS011;41118;44.634;11.182;2023-01-19T15:26:38;5.03;;;0.68;;
55254;SDS011;41118;44.634;11.182;2023-01-19T15:29:25;6.75;;;0.68;;
55254;SDS011;41118;44.634;11.182;2023-01-19T15:31:51;7.35;;;1.42;;
55254;SDS011;41118;44.634;11.182;2023-01-19T15:34:17;5.55;;;1.33;;
55254;SDS011;41118;44.634;11.182;2023-01-19T15:36:43;6.38;;;1.00;;